Newfields, New Hampshire
Current Conditions -  °F | °C
As of 1:58 AM on Thursday 23 Oct 2014 (Local Time) from KPSM Reporting Station
Light Rain Light Rain  
Wind Chill: 41°   Ceiling: 700
Heat Index: 48°   Visibility: 4mi
Dew Point: 45°   Wind: 21mph
Humidity: 91%   Direction: 30°NNE
Pressure: 29.83"   Gusts: 31mph
Location:  43.04°N, 70.94°W
Report Text: KPSM 230558Z 03018G27KT 4SM -RA BR FEW003 OVC007 09/07 A2983 RMK AO2A PK WND 04030/43 SLP105 P0004 60025 T00880074 10092 20087 56025
Loading
Personal Weather Stations






























Interactive Weather Map
Tropical Storm Tracking
New forecast layout! Learn more

10-Day Weather Forecast

Advertisements
Track Severe Weather on mobile